aviador You're here:

VOBL Decoded Metar

Bengaluru in INDIA
Report Time2018-01-19 19:00:00
UTC Time2018-01-19 19:17:08
Flight Rules ifr IFR
WindVRB at 02 kt
Visibility4000 m
Phenomena:Mist
Clouds:N/A
CeilingNone
Temp15°C (ISA +6)
Dew Point15°C (100% RH)
QNH1017 hPa
Density Alt3,809 ft
Elevation3,002 ft
Report Wrong Elevation
Raw Report
METAR VOBL 191900Z VRB02KT 4000 BR NSC 15/15 Q1017 NOSIG=

Extra information for VOBL:More info

Metar Taf Metar & Taf Last 4 Metars F.Rules Stats Wind Profile Meteogram Temp Stats Airport Information Weather charts Add Link Nearby VenuesMetar ALERT Operation Metar Decoded Social comments